Fish Creek, WI (54212)

5:15 AM CDT on September 01, 2015 (GMT -0500)
Door County, Wisconsin, Spring Road | | Change Station
CLOSE
Current Station
Personal Weather Station
Location: Fish Creek, WI
Elevation: 627 ft
Nearby Weather Stations
Active Advisory: Special Statement

Elev 627 ft 45.12 °N, 87.23 °W | Updated 48 seconds ago

Clear
Clear
59.9 °F
Feels Like 59.9 °F
N
0.0
Wind Variable Wind from SE
Gusts 0.0 mph

Today
High -- | Low -- °F
--% Chance of Precip.
Yesterday
High -- | Low -- °F
Precip. -- in
6:10 AM 7:26 PM
Waning Gibbous, 90% visible
Pressure 29.98 in
Visibility 4.0 miles
Clouds Clear
Dew Point 60 °F
Humidity 99%
Rainfall 0.00 in
Snow Depth Not available.
UV 0.0 out of 12
Pollen 10.10 out of 12
Air Quality Not available.
Flu Activity Not available.
METAR KMNM 010955Z AUTO 23005KT 4SM CLR 19/17 A2998 RMK AO1
Pressure 29.98 in
Visibility 4.0 miles
Clouds Clear
Dew Point 60 °F
Humidity 99%
Rainfall 0.00 in
Snow Depth Not available.
UV 0.0 out of 12
Pollen 10.10 out of 12
Air Quality Not available.
Flu Activity Not available.
METAR KMNM 010955Z AUTO 23005KT 4SM CLR 19/17 A2998 RMK AO1

10-Day Weather Forecast

×

Almanac

Astronomy

Sep. 01, 2015 Rise Set
Actual Time
Civil Twilight
Nautical Twilight
Astronomical Twilight
Moon
Length of Visible Light
Length of Day
Tomorrow will be .
, % of the Moon is Illuminated

Today's Extremes

State Highs State Lows

Community

WunderPhotos

Upload Photos

1,851,501 photos uploaded!

WunderBlogs® & News

Nearby

Air Quality

  Air Quality AQ Index Pollutant
Not available.

Snow Depth

Station Depth Elevation

Earthquake Activity

City Distance Mag. Time & Date
Minimum magnitude displayed is 2.5.

Coastal Water Temperatures

Place Temperature

Stations

Nearby Weather Stations

Station Location Temp. Windchill Dew Point Humidity Wind Precip. Elev Updated Type
                   
Special Statement
Statement as of 3:35 AM CDT on September 01, 2015

... Patchy dense fog early this morning...

Moist air combined with light winds and clear skies has resulted
in patchy dense fog this morning. Visibilities will be less than
a quarter mile in some areas so drive with care and be ready to
slow down when driving in fog.

The foggy conditions should improve by 9 am.


Kurimski

335 am CDT Tue Sep 1 2015

... Patchy dense fog early this morning...

Moist air combined with light winds and clear skies has resulted
in patchy dense fog this morning. Visibilities will be less than
a quarter mile in some areas so drive with care and be ready to
slow down when driving in fog.

The foggy conditions should improve by 9 am.


Kurimski